Werte bis 5 Uhr SommerzeitDiagramme Dauborn: Tagesdaten MonatsdatenCSV-Datei: Dauborn21.csv

Wetterdaten 2021 Station: Dauborn
Temperaturen in °C relative Nieder- Global- Wind Wind Wind- Sonnen-
Datum Boden Boden Luft Luft Luft Luft Feuchte schlag strahlung max richtung schein
20 cm 5 cm 20 cm 2 m 2 m max 2 m min % mm W/m2*d m/s m/s ° h

06.05.2021 7,5 5,5 3,7 4,8 5,8 4,1 76 0,0 0 1,1 7,1 --- ---
05.05.2021 8,0 6,0 7,0 7,0 11,5 1,8 65 8,9 4330 2,3 13,7 --- 10,2
04.05.2021 8,3 7,3 9,8 10,6 14,9 5,8 57 0,3 1503 2,5 12,3 --- 4,1
03.05.2021 8,1 6,7 8,3 7,8 15,2 -2,5 55 0,0 5833 1,3 9,8 --- 11,6
02.05.2021 8,7 7,5 7,7 7,6 12,1 2,2 59 0,0 2965 2,3 9,6 --- 10,4
01.05.2021 8,7 8,0 9,5 9,1 13,8 2,5 59 0,0 4020 1,3 5,3 --- 11,0
30.04.2021 8,7 7,6 8,0 7,7 14,3 0,2 68 0,0 4101 1,1 5,4 --- 9,6
29.04.2021 8,9 9,0 11,7 11,0 16,8 6,1 67 0,5 5815 2,5 11,7 --- 10,6
28.04.2021 7,8 7,3 11,3 10,9 21,9 -0,4 56 9,2 6498 1,2 10,0 --- 10,4
27.04.2021 7,6 6,6 9,4 9,4 18,2 0,7 43 0,0 7304 0,9 5,4 --- 12,3
26.04.2021 7,7 6,5 7,9 7,5 16,0 -2,1 49 0,0 7466 1,0 7,0 --- 12,1
25.04.2021 7,9 6,9 8,4 7,8 16,3 -1,1 56 0,0 7213 1,0 5,4 --- 11,7
24.04.2021 7,9 7,0 8,8 8,4 17,4 -0,9 59 0,0 6719 0,9 7,3 --- 11,8
23.04.2021 7,9 6,9 8,3 7,6 17,3 -1,9 60 0,0 7095 0,9 4,9 --- 11,9
22.04.2021 8,3 7,5 8,4 7,8 13,9 1,8 59 0,0 6698 1,5 8,0 --- 11,7
21.04.2021 8,2 7,8 10,4 9,9 19,0 0,7 68 0,0 5306 0,9 8,7 --- 11,0
20.04.2021 8,0 7,5 10,1 9,5 19,0 -0,3 65 0,0 6565 0,7 4,2 --- 11,5
19.04.2021 7,7 7,7 10,2 9,8 14,9 4,3 75 2,5 3764 0,8 5,1 --- 9,8
18.04.2021 7,0 6,4 8,1 8,0 12,2 4,7 74 1,4 1625 0,6 2,8 --- 5,8
17.04.2021 6,5 5,6 7,1 6,7 12,3 0,6 62 0,0 3205 0,7 6,1 --- 9,5
16.04.2021 6,1 4,8 4,8 4,5 9,2 -1,3 68 0,0 2602 0,8 6,0 --- 9,2
15.04.2021 6,0 4,7 4,3 3,4 11,2 -4,4 68 0,0 5188 0,8 8,1 --- 10,4
14.04.2021 6,2 4,7 3,9 2,7 9,8 -4,3 71 0,0 4781 1,1 7,1 --- 10,5
13.04.2021 6,6 4,9 3,3 2,5 9,4 -4,2 76 0,1 4194 1,1 6,4 --- 10,1
12.04.2021 7,2 6,1 4,2 3,6 8,1 -0,7 79 0,7 3803 2,1 10,1 --- 8,7
11.04.2021 7,5 6,9 7,2 7,2 13,8 3,0 86 8,6 1215 1,8 8,1 --- 2,7
10.04.2021 7,0 6,6 8,3 8,5 10,3 6,5 88 11,9 893 0,8 7,1 --- 2,2
09.04.2021 5,9 5,0 7,9 7,1 16,0 -3,7 54 0,6 4793 1,2 8,3 --- 10,1
08.04.2021 5,7 4,4 4,7 4,0 10,1 0,5 57 0,1 3744 1,4 6,9 --- 10,0
07.04.2021 5,8 3,8 1,8 1,6 3,9 -0,3 76 0,8 1502 3,5 14,9 --- 5,6
06.04.2021 6,3 4,4 2,8 2,0 6,3 -0,5 69 0,4 3909 4,0 13,0 --- 8,2
05.04.2021 7,2 5,0 1,9 2,1 6,5 -1,6 78 2,2 1638 3,0 18,2 --- 3,9
04.04.2021 8,1 6,4 4,5 3,7 9,6 -2,6 69 0,0 3850 1,4 6,6 --- 10,7
03.04.2021 8,7 8,0 8,1 7,4 14,6 1,5 53 0,0 5065 1,6 7,3 --- 10,9
02.04.2021 9,2 8,2 7,8 7,5 13,0 2,3 61 0,0 4151 2,1 10,9 --- 7,9
01.04.2021 9,2 9,3 13,2 13,1 22,5 3,8 61 0,0 4841 1,6 8,5 --- 10,0
31.03.2021 8,6 8,7 13,0 13,0 26,5 0,5 55 0,0 5425 0,7 4,5 --- 10,5
30.03.2021 8,3 8,2 11,6 11,6 25,1 -0,1 57 0,0 5567 0,5 3,3 --- 10,6
29.03.2021 7,8 8,1 13,4 12,3 21,6 3,3 51 0,0 5410 1,3 6,1 --- 10,4
28.03.2021 7,1 6,4 8,7 8,0 15,5 0,6 63 0,0 3933 1,2 7,9 --- 8,9
27.03.2021 7,6 6,7 7,3 6,9 11,4 2,4 67 3,6 3068 2,4 15,7 --- 8,4
26.03.2021 7,4 7,4 10,3 10,4 16,8 3,8 65 0,0 3742 1,4 8,7 --- 8,9
25.03.2021 6,5 6,3 8,5 7,8 16,7 -1,4 70 0,0 4162 0,9 4,8 --- 9,2
24.03.2021 5,8 5,3 6,6 6,5 16,4 -3,2 69 0,0 5030 0,9 5,5 --- 10,3
23.03.2021 5,7 5,1 6,2 5,9 10,4 0,3 70 0,0 1953 0,8 5,4 --- 6,3
22.03.2021 5,3 4,1 4,9 4,9 7,4 2,2 73 0,1 1269 2,4 7,8 --- 4,4
21.03.2021 5,4 4,3 5,3 5,4 8,2 2,7 66 0,0 1645 2,8 12,2 --- 6,0
20.03.2021 5,0 3,7 3,1 2,3 8,3 -3,3 59 0,0 4296 1,0 4,7 --- 9,1
19.03.2021 5,4 4,2 2,8 2,6 7,7 -2,0 75 0,5 2741 1,1 7,5 --- 7,0
18.03.2021 5,3 3,8 3,2 2,0 7,3 -3,2 77 2,8 3246 1,6 8,9 --- 7,3
17.03.2021 5,8 4,7 3,9 3,8 6,8 -0,9 78 3,4 1967 1,3 7,2 --- 6,9
16.03.2021 5,7 4,6 5,0 4,9 8,2 2,8 77 0,2 1879 2,6 9,6 --- 6,2
15.03.2021 5,7 4,8 5,3 5,1 8,7 2,4 80 4,7 2681 3,0 15,4 --- 6,7
14.03.2021 5,7 4,6 5,2 4,8 8,1 2,1 76 3,0 2283 2,3 9,6 --- 7,5
13.03.2021 6,1 5,3 6,7 6,8 10,4 4,0 72 4,6 2035 2,8 20,6 --- 5,9
12.03.2021 5,7 5,1 7,5 7,3 11,1 4,6 63 1,5 2526 2,6 14,9 --- 7,1
11.03.2021 5,4 5,1 8,6 8,9 14,5 6,1 71 4,4 1226 3,1 16,7 --- 3,2
10.03.2021 4,5 4,0 6,4 6,3 10,6 2,3 74 0,0 1484 1,2 6,8 --- 6,1
09.03.2021 3,7 2,8 3,2 2,8 6,3 -0,8 84 0,0 1242 0,7 4,6 --- 4,0
08.03.2021 3,3 1,6 1,4 1,0 6,7 -4,3 78 0,0 1706 0,6 2,5 --- 6,8
07.03.2021 3,7 1,8 0,9 0,4 9,8 -7,1 66 0,0 4282 0,9 5,3 --- 9,6
06.03.2021 4,5 2,3 0,4 0,2 8,6 -6,5 67 0,0 4267 0,8 5,2 --- 9,6
05.03.2021 5,6 4,4 2,8 2,8 7,7 -3,4 74 1,0 1689 1,3 6,3 --- 5,9
04.03.2021 5,3 4,7 6,0 5,9 11,3 1,7 85 5,2 1230 1,4 8,0 --- 4,3
03.03.2021 4,7 3,7 5,4 5,3 17,1 -2,4 76 0,0 2788 0,5 3,4 --- 7,9
02.03.2021 4,7 3,7 5,1 5,0 16,3 -2,7 75 0,1 3685 0,8 3,8 --- 8,7
01.03.2021 4,8 3,5 3,9 3,9 14,4 -3,6 78 0,0 3405 0,8 4,2 --- 7,7
28.02.2021 5,1 4,3 5,7 5,7 13,1 -1,2 66 0,0 3610 0,9 5,2 --- 8,7
27.02.2021 5,0 3,6 3,5 3,6 11,2 -3,0 79 0,1 3571 0,8 5,7 --- 8,7
26.02.2021 5,6 4,6 4,8 5,1 8,3 1,5 86 5,2 727 1,0 6,3 --- 2,7
25.02.2021 5,6 5,3 8,5 8,8 21,0 0,6 73 0,0 3047 0,7 4,7 --- 8,1
24.02.2021 5,1 5,2 8,9 9,4 20,4 1,6 79 0,0 2756 0,6 5,3 --- 7,7
23.02.2021 4,0 4,4 9,3 9,5 20,4 3,0 76 0,0 2668 0,9 7,3 --- 7,1
22.02.2021 3,1 2,2 4,4 4,4 13,5 -2,1 82 0,0 2016 0,6 3,3 --- 7,1
21.02.2021 2,6 2,3 6,3 7,2 18,4 -1,0 71 0,0 3096 1,1 7,5 --- 7,8
20.02.2021 1,5 1,4 5,3 5,9 15,7 -1,5 79 0,0 2687 0,8 6,2 --- 7,4
19.02.2021 0,6 0,2 4,7 5,2 11,5 -0,2 81 1,2 2410 1,2 9,5 --- 7,5
18.02.2021 0,4 -0,8 3,8 4,4 11,6 -1,7 81 0,0 1177 1,2 8,1 --- 5,0
17.02.2021 0,4 -1,0 7,1 7,6 11,3 2,4 78 1,8 1298 1,2 7,0 --- 4,7
16.02.2021 0,3 -1,1 3,8 4,0 9,4 0,3 85 1,6 1614 1,1 7,1 --- 5,8
15.02.2021 0,4 -1,8 -1,5 -1,1 1,2 -5,2 64 2,6 608 1,5 7,6 --- 2,0
14.02.2021 0,5 -2,4 -4,5 -4,6 3,8 -12,7 62 0,0 2960 1,1 7,1 --- 7,6
13.02.2021 0,9 -2,0 -6,3 -6,0 0,3 -11,5 67 0,0 2861 1,5 9,5 --- 7,4
12.02.2021 1,2 -1,2 -5,8 -6,0 -1,8 -9,7 71 0,0 2427 1,6 9,2 --- 6,5
11.02.2021 1,5 -0,9 -3,4 -3,8 0,5 -7,7 74 0,5 2493 0,8 5,3 --- 6,3
10.02.2021 1,9 -0,7 -7,9 -8,3 -2,9 -12,2 77 0,0 1954 0,8 7,1 --- 5,9
09.02.2021 2,5 -0,1 -6,7 -7,3 -4,3 -10,5 72 0,0 1550 0,9 5,5 --- 4,9
08.02.2021 3,3 0,6 -5,1 -5,5 -3,9 -7,2 81 0,0 504 0,1 4,0 --- 0,5
07.02.2021 4,5 2,4 -0,4 -0,5 1,8 -3,9 91 6,8 155 0,6 5,3 --- ---
06.02.2021 5,3 4,0 3,8 3,9 5,3 1,1 94 13,9 142 0,7 6,8 --- ---
05.02.2021 5,2 3,7 4,0 4,0 6,4 1,1 95 11,9 283 0,4 3,6 --- ---
04.02.2021 5,9 5,1 7,1 6,9 10,9 2,1 76 1,0 1992 1,7 13,2 --- 5,9
03.02.2021 5,2 5,1 9,0 9,7 13,2 7,7 85 4,9 389 1,3 9,2 --- 0,4
02.02.2021 4,2 3,6 6,4 6,8 11,4 3,7 89 5,8 544 0,9 5,0 --- 0,8
01.02.2021 3,5 2,2 2,4 2,3 3,9 0,3 96 8,0 408 0,3 2,9 --- ---
31.01.2021 3,9 1,8 -0,5 -0,3 1,1 -3,5 85 2,0 452 0,6 4,8 --- 0,2
30.01.2021 5,0 3,7 3,0 3,3 7,8 -0,2 87 4,1 478 1,4 10,5 --- 1,2
29.01.2021 4,5 4,5 7,5 8,2 9,9 6,4 85 21,7 534 1,9 12,1 --- 1,3
28.01.2021 3,0 2,3 4,8 4,9 10,5 1,8 93 16,2 273 1,4 7,9 --- ---
27.01.2021 2,6 0,8 1,1 1,3 2,8 -0,4 88 1,4 424 1,1 5,5 --- 0,3
26.01.2021 2,6 1,0 1,3 1,8 3,5 -0,2 83 0,8 408 2,1 9,4 --- 0,6
25.01.2021 2,9 0,8 0,3 0,3 2,2 -1,2 88 2,8 531 0,8 4,9 --- 1,3
24.01.2021 3,6 1,8 0,8 1,1 2,9 -1,1 89 9,5 674 2,2 9,1 --- 2,3
23.01.2021 4,1 2,4 2,4 2,5 4,8 -0,4 90 0,0 608 1,2 5,7 --- 1,7
22.01.2021 4,6 4,1 5,3 5,5 10,7 1,2 84 9,2 523 1,8 11,8 --- 0,8
21.01.2021 3,5 3,2 8,0 8,3 11,1 6,2 67 1,8 761 3,1 15,5 --- 3,0
20.01.2021 2,6 1,4 4,4 4,8 9,2 1,1 70 0,0 626 2,0 9,4 --- 1,4
19.01.2021 2,4 1,2 3,4 4,0 5,8 1,7 80 9,8 144 1,6 7,0 --- ---
18.01.2021 1,8 0,5 3,0 3,3 5,2 2,0 83 0,5 712 1,3 6,9 --- 1,8
17.01.2021 1,6 -0,3 -0,5 -0,6 2,7 -2,5 89 3,0 398 0,7 3,4 --- 0,1
16.01.2021 1,7 -0,3 -0,4 -0,5 1,1 -1,8 67 0,0 839 1,1 5,5 --- 3,0
15.01.2021 2,0 -0,2 -1,4 -1,1 1,0 -4,9 82 0,0 374 0,7 3,3 --- ---
14.01.2021 2,1 0,5 0,9 1,2 3,2 -1,0 74 0,0 629 1,6 8,1 --- 2,1
13.01.2021 2,0 0,1 1,1 1,8 4,4 -1,1 80 0,0 763 1,6 7,0 --- 2,4
12.01.2021 1,9 0,1 2,3 2,9 5,4 1,4 85 11,3 431 2,2 10,6 --- 0,5
11.01.2021 2,1 -0,3 -1,8 -2,0 2,7 -6,9 81 0,1 1072 1,0 5,6 --- 4,1
10.01.2021 2,6 0,3 -1,5 -1,5 2,2 -5,1 89 0,0 1040 0,6 2,6 --- 4,0
09.01.2021 3,0 0,9 -0,3 0,1 3,9 -2,1 85 0,0 922 0,3 4,5 --- 3,0
08.01.2021 3,2 1,3 -0,3 0,1 2,6 -1,1 91 0,3 406 0,2 6,1 --- ---
07.01.2021 3,3 1,5 0,2 0,5 2,8 -0,2 88 0,0 397 0,5 4,3 --- 0,5
06.01.2021 3,3 1,8 1,5 1,9 3,4 0,4 91 0,8 343 0,6 3,8 --- ---
05.01.2021 3,3 1,7 1,3 1,5 2,7 0,5 90 0,4 369 0,5 5,4 --- 0,2
04.01.2021 3,4 1,4 0,7 0,8 1,4 0,1 93 2,2 93 0,3 3,4 --- ---
03.01.2021 3,5 1,5 0,6 0,9 2,5 -0,9 90 0,4 129 0,5 2,9 --- ---
02.01.2021 3,7 1,8 0,0 -0,3 1,3 -1,7 96 0,1 417 0,2 2,2 --- ---
01.01.2021 3,9 2,0 1,3 1,2 2,5 0,2 94 3,4 204 0,2 3,0 --- ---

Mittelwerte (Temperaturen, Strahlung, rel. Feuchte, Wind), Summe (Regen) für 2021
5,0 3,8 4,5 4,4 74 250 2.476 1,3

Landesbetrieb Landwirtschaft Hessen 2009

      Werte bis 5 Uhr SommerzeitCSV-Datei: Dauborn21.csvDiagramm: Dauborn